Redland, North Carolina
Current Conditions -  °F | °C
As of 6:54 PM on Saturday 25 Oct 2014 (Local Time) from KINT Reporting Station
Clear Clear  
Wind Chill: 67°   Ceiling: Unl
Heat Index: 67°   Visibility: 10mi
Dew Point: 36°   Wind: 3mph
Humidity: 32%   Direction: 230°SW
Pressure: 29.92"   Gusts: NA
Location:  36.0107°N, 80.4503°W
Report Text: KINT 252254Z AUTO 23003KT 10SM CLR 19/02 A2992 RMK AO2 SLP129 T01940022
Loading
Personal Weather Stations






























Interactive Weather Map
Tropical Storm Tracking
New forecast layout! Learn more

10-Day Weather Forecast

Advertisements
Track Severe Weather on mobile